sensor_id;sensor_type;location;lat;lon;timestamp;temperature;humidity
6843;DHT22;3460;52.028;8.916;2024-03-23T00:55:10;7.00;99.90
6843;DHT22;3460;52.028;8.916;2024-03-23T00:57:36;6.90;99.90
6843;DHT22;3460;52.028;8.916;2024-03-23T01:00:03;6.90;99.90
6843;DHT22;3460;52.028;8.916;2024-03-23T01:02:31;6.90;99.90
6843;DHT22;3460;52.028;8.916;2024-03-23T01:04:58;6.90;99.90
6843;DHT22;3460;52.028;8.916;2024-03-23T01:07:24;6.90;99.90
6843;DHT22;3460;52.028;8.916;2024-03-23T01:09:50;6.90;99.90
6843;DHT22;3460;52.028;8.916;2024-03-23T01:12:19;6.90;99.90
6843;DHT22;3460;52.028;8.916;2024-03-23T01:14:46;6.90;99.90
6843;DHT22;3460;52.028;8.916;2024-03-23T01:17:11;6.90;99.90
6843;DHT22;3460;52.028;8.916;2024-03-23T01:19:38;6.90;99.90
6843;DHT22;3460;52.028;8.916;2024-03-23T01:22:05;6.80;99.90
6843;DHT22;3460;52.028;8.916;2024-03-23T01:24:32;6.80;99.90
6843;DHT22;3460;52.028;8.916;2024-03-23T01:26:58;6.80;99.90
6843;DHT22;3460;52.028;8.916;2024-03-23T01:29:26;6.80;99.90
6843;DHT22;3460;52.028;8.916;2024-03-23T01:31:52;6.70;99.90
6843;DHT22;3460;52.028;8.916;2024-03-23T01:34:19;6.70;99.90
6843;DHT22;3460;52.028;8.916;2024-03-23T01:36:46;6.70;99.90
6843;DHT22;3460;52.028;8.916;2024-03-23T01:39:13;6.70;99.90
6843;DHT22;3460;52.028;8.916;2024-03-23T01:41:39;6.70;99.90
6843;DHT22;3460;52.028;8.916;2024-03-23T01:44:08;6.60;99.90
6843;DHT22;3460;52.028;8.916;2024-03-23T01:46:35;6.60;99.90
6843;DHT22;3460;52.028;8.916;2024-03-23T01:49:03;6.60;99.90
6843;DHT22;3460;52.028;8.916;2024-03-23T01:51:30;6.60;99.90
6843;DHT22;3460;52.028;8.916;2024-03-23T01:53:57;6.60;99.90
6843;DHT22;3460;52.028;8.916;2024-03-23T01:56:23;6.50;99.90
6843;DHT22;3460;52.028;8.916;2024-03-23T01:58:50;6.50;99.90
6843;DHT22;3460;52.028;8.916;2024-03-23T02:01:15;6.50;99.90
6843;DHT22;3460;52.028;8.916;2024-03-23T02:03:44;6.50;99.90
6843;DHT22;3460;52.028;8.916;2024-03-23T02:06:10;6.50;99.90
6843;DHT22;3460;52.028;8.916;2024-03-23T02:08:36;6.50;99.90
6843;DHT22;3460;52.028;8.916;2024-03-23T02:11:03;6.60;99.90
6843;DHT22;3460;52.028;8.916;2024-03-23T02:13:29;6.50;99.90
6843;DHT22;3460;52.028;8.916;2024-03-23T02:15:57;6.50;99.90
6843;DHT22;3460;52.028;8.916;2024-03-23T02:18:24;6.50;99.90
6843;DHT22;3460;52.028;8.916;2024-03-23T02:20:51;6.50;99.90
6843;DHT22;3460;52.028;8.916;2024-03-23T02:23:19;6.50;99.90
6843;DHT22;3460;52.028;8.916;2024-03-23T02:25:45;6.50;99.90
6843;DHT22;3460;52.028;8.916;2024-03-23T02:28:12;6.50;99.90
6843;DHT22;3460;52.028;8.916;2024-03-23T02:30:38;6.50;99.90
6843;DHT22;3460;52.028;8.916;2024-03-23T02:33:05;6.50;99.90
6843;DHT22;3460;52.028;8.916;2024-03-23T02:35:31;6.60;99.90
6843;DHT22;3460;52.028;8.916;2024-03-23T02:37:58;6.60;99.90
6843;DHT22;3460;52.028;8.916;2024-03-23T02:40:25;6.60;99.90
6843;DHT22;3460;52.028;8.916;2024-03-23T02:42:52;6.50;99.90
6843;DHT22;3460;52.028;8.916;2024-03-23T02:45:18;6.50;99.90
6843;DHT22;3460;52.028;8.916;2024-03-23T02:47:45;6.50;99.90
6843;DHT22;3460;52.028;8.916;2024-03-23T02:50:11;6.50;99.90
6843;DHT22;3460;52.028;8.916;2024-03-23T02:52:38;6.50;99.90
6843;DHT22;3460;52.028;8.916;2024-03-23T02:55:04;6.40;99.90
6843;DHT22;3460;52.028;8.916;2024-03-23T02:57:32;6.40;99.90
6843;DHT22;3460;52.028;8.916;2024-03-23T02:59:58;6.40;99.90
6843;DHT22;3460;52.028;8.916;2024-03-23T03:02:25;6.40;99.90
6843;DHT22;3460;52.028;8.916;2024-03-23T03:04:51;6.40;99.90
6843;DHT22;3460;52.028;8.916;2024-03-23T03:07:17;6.40;99.90
6843;DHT22;3460;52.028;8.916;2024-03-23T03:09:44;6.40;99.90
6843;DHT22;3460;52.028;8.916;2024-03-23T03:12:11;6.40;99.90
6843;DHT22;3460;52.028;8.916;2024-03-23T03:14:38;6.40;99.90
6843;DHT22;3460;52.028;8.916;2024-03-23T03:17:05;6.40;99.90
6843;DHT22;3460;52.028;8.916;2024-03-23T03:19:31;6.30;99.90
6843;DHT22;3460;52.028;8.916;2024-03-23T03:21:58;6.30;99.90
6843;DHT22;3460;52.028;8.916;2024-03-23T03:24:24;6.40;99.90
6843;DHT22;3460;52.028;8.916;2024-03-23T03:26:50;6.40;99.90
6843;DHT22;3460;52.028;8.916;2024-03-23T03:29:16;6.40;99.90
6843;DHT22;3460;52.028;8.916;2024-03-23T03:31:45;6.30;99.90
6843;DHT22;3460;52.028;8.916;2024-03-23T03:34:10;6.30;99.90
6843;DHT22;3460;52.028;8.916;2024-03-23T03:36:37;6.30;99.90
6843;DHT22;3460;52.028;8.916;2024-03-23T03:39:03;6.20;99.90
6843;DHT22;3460;52.028;8.916;2024-03-23T03:41:31;6.20;99.90
6843;DHT22;3460;52.028;8.916;2024-03-23T03:43:57;6.20;99.90
6843;DHT22;3460;52.028;8.916;2024-03-23T03:46:27;6.10;99.90
6843;DHT22;3460;52.028;8.916;2024-03-23T03:48:54;6.10;99.90
6843;DHT22;3460;52.028;8.916;2024-03-23T03:51:21;6.10;99.90
6843;DHT22;3460;52.028;8.916;2024-03-23T03:53:47;6.10;99.90
6843;DHT22;3460;52.028;8.916;2024-03-23T03:56:14;6.10;99.90
6843;DHT22;3460;52.028;8.916;2024-03-23T03:58:40;6.00;99.90
6843;DHT22;3460;52.028;8.916;2024-03-23T04:01:06;6.00;99.90
6843;DHT22;3460;52.028;8.916;2024-03-23T04:03:32;6.00;99.90
6843;DHT22;3460;52.028;8.916;2024-03-23T04:06:00;6.00;99.90
6843;DHT22;3460;52.028;8.916;2024-03-23T04:08:26;6.10;99.90
6843;DHT22;3460;52.028;8.916;2024-03-23T04:10:53;6.10;99.90
6843;DHT22;3460;52.028;8.916;2024-03-23T04:13:19;6.00;99.90
6843;DHT22;3460;52.028;8.916;2024-03-23T04:15:46;6.00;99.90
6843;DHT22;3460;52.028;8.916;2024-03-23T04:18:11;6.00;99.90
6843;DHT22;3460;52.028;8.916;2024-03-23T04:20:38;6.00;99.90
6843;DHT22;3460;52.028;8.916;2024-03-23T04:23:05;6.00;99.90
6843;DHT22;3460;52.028;8.916;2024-03-23T04:25:32;6.00;99.90
6843;DHT22;3460;52.028;8.916;2024-03-23T04:27:58;6.00;99.90
6843;DHT22;3460;52.028;8.916;2024-03-23T04:30:25;6.10;99.90
6843;DHT22;3460;52.028;8.916;2024-03-23T04:32:53;6.00;99.90
6843;DHT22;3460;52.028;8.916;2024-03-23T04:35:20;6.00;99.90
6843;DHT22;3460;52.028;8.916;2024-03-23T04:37:47;6.00;99.90
6843;DHT22;3460;52.028;8.916;2024-03-23T04:40:16;6.10;99.90
6843;DHT22;3460;52.028;8.916;2024-03-23T04:42:42;6.10;99.90
6843;DHT22;3460;52.028;8.916;2024-03-23T04:45:09;6.00;99.90
6843;DHT22;3460;52.028;8.916;2024-03-23T04:47:37;6.00;99.90
6843;DHT22;3460;52.028;8.916;2024-03-23T04:50:04;6.00;99.90
6843;DHT22;3460;52.028;8.916;2024-03-23T04:52:31;5.90;99.90
6843;DHT22;3460;52.028;8.916;2024-03-23T04:54:57;5.90;99.90
6843;DHT22;3460;52.028;8.916;2024-03-23T04:57:25;5.90;99.90
6843;DHT22;3460;52.028;8.916;2024-03-23T04:59:51;5.90;99.90
6843;DHT22;3460;52.028;8.916;2024-03-23T05:02:18;5.90;99.90
6843;DHT22;3460;52.028;8.916;2024-03-23T05:04:44;5.80;99.90
6843;DHT22;3460;52.028;8.916;2024-03-23T05:07:11;5.80;99.90
6843;DHT22;3460;52.028;8.916;2024-03-23T05:09:37;5.80;99.90
6843;DHT22;3460;52.028;8.916;2024-03-23T05:12:04;5.90;99.90
6843;DHT22;3460;52.028;8.916;2024-03-23T05:14:31;5.80;99.90
6843;DHT22;3460;52.028;8.916;2024-03-23T05:16:58;5.90;99.90
6843;DHT22;3460;52.028;8.916;2024-03-23T05:19:24;5.90;99.90
6843;DHT22;3460;52.028;8.916;2024-03-23T05:21:51;5.90;99.90
6843;DHT22;3460;52.028;8.916;2024-03-23T05:24:18;5.90;99.90
6843;DHT22;3460;52.028;8.916;2024-03-23T05:26:45;5.90;99.90
6843;DHT22;3460;52.028;8.916;2024-03-23T05:29:11;5.90;99.90
6843;DHT22;3460;52.028;8.916;2024-03-23T05:31:40;5.80;99.90
6843;DHT22;3460;52.028;8.916;2024-03-23T05:34:07;5.80;99.90
6843;DHT22;3460;52.028;8.916;2024-03-23T05:36:34;5.80;99.90
6843;DHT22;3460;52.028;8.916;2024-03-23T05:39:00;5.80;99.90
6843;DHT22;3460;52.028;8.916;2024-03-23T05:41:27;5.90;99.90
6843;DHT22;3460;52.028;8.916;2024-03-23T05:43:52;5.80;99.90
6843;DHT22;3460;52.028;8.916;2024-03-23T05:46:19;5.60;99.90
6843;DHT22;3460;52.028;8.916;2024-03-23T05:48:47;5.60;99.90
6843;DHT22;3460;52.028;8.916;2024-03-23T05:51:14;5.50;99.90
6843;DHT22;3460;52.028;8.916;2024-03-23T05:53:39;5.50;99.90
6843;DHT22;3460;52.028;8.916;2024-03-23T05:56:06;5.40;99.90
6843;DHT22;3460;52.028;8.916;2024-03-23T05:58:32;5.50;99.90
6843;DHT22;3460;52.028;8.916;2024-03-23T06:01:00;5.60;99.90
6843;DHT22;3460;52.028;8.916;2024-03-23T06:03:26;5.60;99.90
6843;DHT22;3460;52.028;8.916;2024-03-23T06:05:55;5.60;99.90
6843;DHT22;3460;52.028;8.916;2024-03-23T06:08:21;5.60;99.90
6843;DHT22;3460;52.028;8.916;2024-03-23T06:10:48;5.60;99.90
6843;DHT22;3460;52.028;8.916;2024-03-23T06:13:15;5.60;99.90
6843;DHT22;3460;52.028;8.916;2024-03-23T06:15:42;5.60;99.90
6843;DHT22;3460;52.028;8.916;2024-03-23T06:18:08;5.70;99.90
6843;DHT22;3460;52.028;8.916;2024-03-23T06:20:35;5.70;99.90
6843;DHT22;3460;52.028;8.916;2024-03-23T06:23:02;5.60;99.90
6843;DHT22;3460;52.028;8.916;2024-03-23T06:25:30;5.70;99.90
6843;DHT22;3460;52.028;8.916;2024-03-23T06:27:56;5.70;99.90
6843;DHT22;3460;52.028;8.916;2024-03-23T06:30:23;5.70;99.90
6843;DHT22;3460;52.028;8.916;2024-03-23T06:32:49;5.70;99.90
6843;DHT22;3460;52.028;8.916;2024-03-23T06:35:16;5.80;99.90
6843;DHT22;3460;52.028;8.916;2024-03-23T06:37:42;5.80;99.90
6843;DHT22;3460;52.028;8.916;2024-03-23T06:40:10;5.80;99.90
6843;DHT22;3460;52.028;8.916;2024-03-23T06:42:36;5.90;99.90
6843;DHT22;3460;52.028;8.916;2024-03-23T06:45:04;5.90;99.90
6843;DHT22;3460;52.028;8.916;2024-03-23T06:47:30;5.80;99.90
6843;DHT22;3460;52.028;8.916;2024-03-23T06:49:57;5.80;99.90
6843;DHT22;3460;52.028;8.916;2024-03-23T06:52:23;5.80;99.90
6843;DHT22;3460;52.028;8.916;2024-03-23T06:54:49;5.80;99.90
6843;DHT22;3460;52.028;8.916;2024-03-23T06:57:17;5.90;99.90
6843;DHT22;3460;52.028;8.916;2024-03-23T06:59:43;5.90;99.90
6843;DHT22;3460;52.028;8.916;2024-03-23T07:02:11;5.90;99.90
6843;DHT22;3460;52.028;8.916;2024-03-23T07:04:38;5.90;99.90
6843;DHT22;3460;52.028;8.916;2024-03-23T07:07:05;6.00;99.90
6843;DHT22;3460;52.028;8.916;2024-03-23T07:09:32;6.00;99.90
6843;DHT22;3460;52.028;8.916;2024-03-23T07:11:58;6.10;99.90
6843;DHT22;3460;52.028;8.916;2024-03-23T07:14:26;6.10;99.90
6843;DHT22;3460;52.028;8.916;2024-03-23T07:16:52;6.20;99.90
6843;DHT22;3460;52.028;8.916;2024-03-23T07:19:19;6.30;99.90
6843;DHT22;3460;52.028;8.916;2024-03-23T07:21:45;6.30;99.90
6843;DHT22;3460;52.028;8.916;2024-03-23T07:24:13;6.30;99.90
6843;DHT22;3460;52.028;8.916;2024-03-23T07:26:39;6.30;99.90
6843;DHT22;3460;52.028;8.916;2024-03-23T07:29:06;6.30;99.90
6843;DHT22;3460;52.028;8.916;2024-03-23T07:31:33;6.40;99.90
6843;DHT22;3460;52.028;8.916;2024-03-23T07:34:00;6.40;99.90
6843;DHT22;3460;52.028;8.916;2024-03-23T07:36:26;6.50;99.90
6843;DHT22;3460;52.028;8.916;2024-03-23T07:38:53;6.50;99.90
6843;DHT22;3460;52.028;8.916;2024-03-23T07:41:19;6.50;99.90
6843;DHT22;3460;52.028;8.916;2024-03-23T07:43:47;6.50;99.90
6843;DHT22;3460;52.028;8.916;2024-03-23T07:46:15;6.50;99.90
6843;DHT22;3460;52.028;8.916;2024-03-23T07:48:43;6.50;99.90
6843;DHT22;3460;52.028;8.916;2024-03-23T07:51:10;6.60;99.90
6843;DHT22;3460;52.028;8.916;2024-03-23T07:53:37;6.60;99.90
6843;DHT22;3460;52.028;8.916;2024-03-23T07:56:07;6.60;99.90
6843;DHT22;3460;52.028;8.916;2024-03-23T07:58:35;6.60;99.90
6843;DHT22;3460;52.028;8.916;2024-03-23T08:01:06;6.60;99.90
6843;DHT22;3460;52.028;8.916;2024-03-23T08:03:34;6.70;99.90
6843;DHT22;3460;52.028;8.916;2024-03-23T08:06:08;6.80;99.90
6843;DHT22;3460;52.028;8.916;2024-03-23T08:08:35;6.90;99.90
6843;DHT22;3460;52.028;8.916;2024-03-23T08:11:01;7.10;99.90
6843;DHT22;3460;52.028;8.916;2024-03-23T08:13:29;7.30;99.90
6843;DHT22;3460;52.028;8.916;2024-03-23T08:15:56;7.40;99.90
6843;DHT22;3460;52.028;8.916;2024-03-23T08:18:23;7.50;99.90
6843;DHT22;3460;52.028;8.916;2024-03-23T08:20:55;7.60;99.90
6843;DHT22;3460;52.028;8.916;2024-03-23T08:23:24;7.80;99.90
6843;DHT22;3460;52.028;8.916;2024-03-23T08:25:50;7.90;99.90
6843;DHT22;3460;52.028;8.916;2024-03-23T08:28:17;7.90;99.90
6843;DHT22;3460;52.028;8.916;2024-03-23T08:30:43;8.10;99.90
6843;DHT22;3460;52.028;8.916;2024-03-23T08:33:09;8.10;99.90
6843;DHT22;3460;52.028;8.916;2024-03-23T08:35:35;8.00;99.90
6843;DHT22;3460;52.028;8.916;2024-03-23T08:38:03;7.80;99.90
6843;DHT22;3460;52.028;8.916;2024-03-23T08:40:30;7.70;99.90
6843;DHT22;3460;52.028;8.916;2024-03-23T08:42:57;7.70;99.90
6843;DHT22;3460;52.028;8.916;2024-03-23T08:45:24;7.60;99.90
6843;DHT22;3460;52.028;8.916;2024-03-23T08:47:50;7.50;99.90
6843;DHT22;3460;52.028;8.916;2024-03-23T08:50:16;7.60;99.90
6843;DHT22;3460;52.028;8.916;2024-03-23T08:52:43;7.60;99.90
6843;DHT22;3460;52.028;8.916;2024-03-23T08:55:09;7.60;99.90
6843;DHT22;3460;52.028;8.916;2024-03-23T08:57:37;7.50;99.90
6843;DHT22;3460;52.028;8.916;2024-03-23T09:00:04;7.40;99.90
6843;DHT22;3460;52.028;8.916;2024-03-23T09:02:34;7.40;99.90
6843;DHT22;3460;52.028;8.916;2024-03-23T09:05:00;7.30;99.90
6843;DHT22;3460;52.028;8.916;2024-03-23T09:07:30;7.40;99.90
6843;DHT22;3460;52.028;8.916;2024-03-23T09:09:55;7.50;99.90
6843;DHT22;3460;52.028;8.916;2024-03-23T09:12:22;7.60;99.90
6843;DHT22;3460;52.028;8.916;2024-03-23T09:14:50;7.60;93.20
6843;DHT22;3460;52.028;8.916;2024-03-23T09:17:18;7.70;58.10
6843;DHT22;3460;52.028;8.916;2024-03-23T09:19:44;7.60;1.00
6843;DHT22;3460;52.028;8.916;2024-03-23T09:22:11;7.60;1.00
6843;DHT22;3460;52.028;8.916;2024-03-23T09:24:38;7.60;1.00
6843;DHT22;3460;52.028;8.916;2024-03-23T09:27:05;7.40;1.00
6843;DHT22;3460;52.028;8.916;2024-03-23T09:29:31;7.40;49.80
6843;DHT22;3460;52.028;8.916;2024-03-23T09:31:59;7.40;94.80
6843;DHT22;3460;52.028;8.916;2024-03-23T09:34:25;7.40;99.90
6843;DHT22;3460;52.028;8.916;2024-03-23T09:36:52;7.50;99.90
6843;DHT22;3460;52.028;8.916;2024-03-23T09:39:18;7.90;99.90
6843;DHT22;3460;52.028;8.916;2024-03-23T09:41:45;8.00;91.10
6843;DHT22;3460;52.028;8.916;2024-03-23T09:44:11;8.20;1.00
6843;DHT22;3460;52.028;8.916;2024-03-23T09:46:38;8.10;39.60
6843;DHT22;3460;52.028;8.916;2024-03-23T09:49:07;8.20;90.00
6843;DHT22;3460;52.028;8.916;2024-03-23T09:51:36;8.20;1.00
6843;DHT22;3460;52.028;8.916;2024-03-23T09:54:02;8.20;1.00
6843;DHT22;3460;52.028;8.916;2024-03-23T09:56:28;8.20;1.00
6843;DHT22;3460;52.028;8.916;2024-03-23T09:59:00;8.30;1.00
6843;DHT22;3460;52.028;8.916;2024-03-23T10:01:29;8.20;1.00
6843;DHT22;3460;52.028;8.916;2024-03-23T10:03:55;8.00;33.00
6843;DHT22;3460;52.028;8.916;2024-03-23T10:06:23;7.90;99.90
6843;DHT22;3460;52.028;8.916;2024-03-23T10:08:50;7.90;1.00
6843;DHT22;3460;52.028;8.916;2024-03-23T10:11:18;7.90;1.00
6843;DHT22;3460;52.028;8.916;2024-03-23T10:13:45;7.80;1.00
6843;DHT22;3460;52.028;8.916;2024-03-23T10:16:20;7.40;1.00
6843;DHT22;3460;52.028;8.916;2024-03-23T10:18:47;7.40;21.50
6843;DHT22;3460;52.028;8.916;2024-03-23T10:21:15;7.40;37.20
6843;DHT22;3460;52.028;8.916;2024-03-23T10:23:43;7.40;57.00
6843;DHT22;3460;52.028;8.916;2024-03-23T10:26:18;7.50;99.00
6843;DHT22;3460;52.028;8.916;2024-03-23T10:28:57;7.70;99.90
6843;DHT22;3460;52.028;8.916;2024-03-23T10:31:26;8.00;99.90
6843;DHT22;3460;52.028;8.916;2024-03-23T10:33:52;8.40;99.90
6843;DHT22;3460;52.028;8.916;2024-03-23T10:36:20;8.60;99.90
6843;DHT22;3460;52.028;8.916;2024-03-23T10:38:47;8.70;1.00
6843;DHT22;3460;52.028;8.916;2024-03-23T10:41:16;8.80;99.90
6843;DHT22;3460;52.028;8.916;2024-03-23T10:43:43;8.90;1.00
6843;DHT22;3460;52.028;8.916;2024-03-23T10:46:11;8.80;1.00
6843;DHT22;3460;52.028;8.916;2024-03-23T10:48:37;8.70;99.90
6843;DHT22;3460;52.028;8.916;2024-03-23T10:51:06;8.50;99.90
6843;DHT22;3460;52.028;8.916;2024-03-23T10:53:33;8.80;1.00
6843;DHT22;3460;52.028;8.916;2024-03-23T10:56:02;9.10;1.00
6843;DHT22;3460;52.028;8.916;2024-03-23T10:58:31;9.30;1.00
6843;DHT22;3460;52.028;8.916;2024-03-23T11:00:58;9.30;26.70
6843;DHT22;3460;52.028;8.916;2024-03-23T11:03:34;9.10;99.90
6843;DHT22;3460;52.028;8.916;2024-03-23T11:06:03;9.00;99.90
6843;DHT22;3460;52.028;8.916;2024-03-23T11:08:33;8.80;99.90
6843;DHT22;3460;52.028;8.916;2024-03-23T11:11:17;8.70;1.00
6843;DHT22;3460;52.028;8.916;2024-03-23T11:13:43;8.70;1.00
6843;DHT22;3460;52.028;8.916;2024-03-23T11:16:15;8.60;1.00
6843;DHT22;3460;52.028;8.916;2024-03-23T11:18:41;8.60;99.90
6843;DHT22;3460;52.028;8.916;2024-03-23T11:21:09;8.80;99.90
6843;DHT22;3460;52.028;8.916;2024-03-23T11:23:35;9.00;99.90
6843;DHT22;3460;52.028;8.916;2024-03-23T11:26:02;9.30;1.00
6843;DHT22;3460;52.028;8.916;2024-03-23T11:28:30;9.40;1.00
6843;DHT22;3460;52.028;8.916;2024-03-23T11:30:57;9.60;99.90
6843;DHT22;3460;52.028;8.916;2024-03-23T11:33:23;9.80;1.00
6843;DHT22;3460;52.028;8.916;2024-03-23T11:35:50;9.80;99.90
6843;DHT22;3460;52.028;8.916;2024-03-23T11:38:17;10.00;1.00
6843;DHT22;3460;52.028;8.916;2024-03-23T11:40:46;10.00;99.90
6843;DHT22;3460;52.028;8.916;2024-03-23T11:43:13;10.00;99.90
6843;DHT22;3460;52.028;8.916;2024-03-23T11:45:43;10.00;99.90
6843;DHT22;3460;52.028;8.916;2024-03-23T11:48:10;10.10;1.00
6843;DHT22;3460;52.028;8.916;2024-03-23T11:50:38;10.20;99.90
6843;DHT22;3460;52.028;8.916;2024-03-23T11:53:07;10.10;99.90
6843;DHT22;3460;52.028;8.916;2024-03-23T11:55:42;9.50;74.30
6843;DHT22;3460;52.028;8.916;2024-03-23T11:58:08;8.60;1.00
6843;DHT22;3460;52.028;8.916;2024-03-23T12:00:35;8.10;1.00
6843;DHT22;3460;52.028;8.916;2024-03-23T12:03:03;7.60;99.90
6843;DHT22;3460;52.028;8.916;2024-03-23T12:05:30;7.20;99.90
6843;DHT22;3460;52.028;8.916;2024-03-23T12:08:15;7.00;1.00
6843;DHT22;3460;52.028;8.916;2024-03-23T12:10:46;6.80;1.00
6843;DHT22;3460;52.028;8.916;2024-03-23T12:13:15;6.80;99.90
6843;DHT22;3460;52.028;8.916;2024-03-23T12:15:43;6.70;1.00
6843;DHT22;3460;52.028;8.916;2024-03-23T12:18:10;6.70;1.00
6843;DHT22;3460;52.028;8.916;2024-03-23T12:20:37;6.60;99.90
6843;DHT22;3460;52.028;8.916;2024-03-23T12:23:07;6.70;99.90
6843;DHT22;3460;52.028;8.916;2024-03-23T12:25:35;6.60;99.90
6843;DHT22;3460;52.028;8.916;2024-03-23T12:28:01;6.70;1.00
6843;DHT22;3460;52.028;8.916;2024-03-23T12:30:28;6.70;92.90
6843;DHT22;3460;52.028;8.916;2024-03-23T12:32:54;6.80;99.90
6843;DHT22;3460;52.028;8.916;2024-03-23T12:35:22;7.00;99.90
6843;DHT22;3460;52.028;8.916;2024-03-23T12:37:48;7.10;1.00
6843;DHT22;3460;52.028;8.916;2024-03-23T12:40:15;7.10;99.90
6843;DHT22;3460;52.028;8.916;2024-03-23T12:42:41;7.00;99.90
6843;DHT22;3460;52.028;8.916;2024-03-23T12:45:08;7.00;60.80
6843;DHT22;3460;52.028;8.916;2024-03-23T12:47:34;7.00;1.00
6843;DHT22;3460;52.028;8.916;2024-03-23T12:50:01;6.90;1.00
6843;DHT22;3460;52.028;8.916;2024-03-23T12:52:29;6.90;1.00
6843;DHT22;3460;52.028;8.916;2024-03-23T12:54:56;7.00;99.90
6843;DHT22;3460;52.028;8.916;2024-03-23T12:57:23;7.10;99.90
6843;DHT22;3460;52.028;8.916;2024-03-23T12:59:50;7.10;99.90
6843;DHT22;3460;52.028;8.916;2024-03-23T13:02:18;7.10;99.90
6843;DHT22;3460;52.028;8.916;2024-03-23T13:04:46;7.20;1.00
6843;DHT22;3460;52.028;8.916;2024-03-23T13:07:12;7.20;1.00
6843;DHT22;3460;52.028;8.916;2024-03-23T13:09:40;7.20;1.00
6843;DHT22;3460;52.028;8.916;2024-03-23T13:12:07;7.30;99.90
6843;DHT22;3460;52.028;8.916;2024-03-23T13:14:33;7.60;99.90
6843;DHT22;3460;52.028;8.916;2024-03-23T13:17:00;7.80;1.00
6843;DHT22;3460;52.028;8.916;2024-03-23T13:19:28;7.90;1.00
6843;DHT22;3460;52.028;8.916;2024-03-23T13:21:56;8.00;99.90
6843;DHT22;3460;52.028;8.916;2024-03-23T13:24:24;8.10;99.90
6843;DHT22;3460;52.028;8.916;2024-03-23T13:26:51;8.20;1.00
6843;DHT22;3460;52.028;8.916;2024-03-23T13:29:19;8.40;99.90
6843;DHT22;3460;52.028;8.916;2024-03-23T13:31:45;8.50;99.90
6843;DHT22;3460;52.028;8.916;2024-03-23T13:34:12;8.60;1.00
6843;DHT22;3460;52.028;8.916;2024-03-23T13:36:40;8.70;79.30
6843;DHT22;3460;52.028;8.916;2024-03-23T13:39:07;8.90;1.00
6843;DHT22;3460;52.028;8.916;2024-03-23T13:41:37;9.00;1.00
6843;DHT22;3460;52.028;8.916;2024-03-23T13:44:06;9.00;1.00
6843;DHT22;3460;52.028;8.916;2024-03-23T13:46:32;8.70;1.00
6843;DHT22;3460;52.028;8.916;2024-03-23T13:48:59;8.10;99.90
6843;DHT22;3460;52.028;8.916;2024-03-23T13:51:26;7.50;99.90
6843;DHT22;3460;52.028;8.916;2024-03-23T13:53:53;7.20;1.00
6843;DHT22;3460;52.028;8.916;2024-03-23T13:56:20;7.00;1.00
6843;DHT22;3460;52.028;8.916;2024-03-23T13:58:46;6.80;1.00
6843;DHT22;3460;52.028;8.916;2024-03-23T14:01:16;6.70;99.90
6843;DHT22;3460;52.028;8.916;2024-03-23T14:03:42;6.50;1.00
6843;DHT22;3460;52.028;8.916;2024-03-23T14:06:10;6.40;99.90
6843;DHT22;3460;52.028;8.916;2024-03-23T14:08:36;6.10;1.00
6843;DHT22;3460;52.028;8.916;2024-03-23T14:11:05;5.80;99.90
6843;DHT22;3460;52.028;8.916;2024-03-23T14:13:31;5.60;91.20
6843;DHT22;3460;52.028;8.916;2024-03-23T14:15:58;5.50;99.90
6843;DHT22;3460;52.028;8.916;2024-03-23T14:18:26;5.50;1.00
6843;DHT22;3460;52.028;8.916;2024-03-23T14:20:56;5.50;1.00
6843;DHT22;3460;52.028;8.916;2024-03-23T14:23:24;5.50;11.80
6843;DHT22;3460;52.028;8.916;2024-03-23T14:25:53;5.50;1.00
6843;DHT22;3460;52.028;8.916;2024-03-23T14:28:19;5.70;46.90
6843;DHT22;3460;52.028;8.916;2024-03-23T14:30:46;6.00;72.10
6843;DHT22;3460;52.028;8.916;2024-03-23T14:33:12;6.20;1.00
6843;DHT22;3460;52.028;8.916;2024-03-23T14:35:40;6.60;66.50
6843;DHT22;3460;52.028;8.916;2024-03-23T14:38:06;6.70;94.00
6843;DHT22;3460;52.028;8.916;2024-03-23T14:40:33;6.80;1.00
6843;DHT22;3460;52.028;8.916;2024-03-23T14:42:59;6.90;1.00
6843;DHT22;3460;52.028;8.916;2024-03-23T14:45:26;6.90;76.80
6843;DHT22;3460;52.028;8.916;2024-03-23T14:47:52;7.00;1.00
6843;DHT22;3460;52.028;8.916;2024-03-23T14:50:19;7.00;99.90
6843;DHT22;3460;52.028;8.916;2024-03-23T14:52:46;6.90;99.90
6843;DHT22;3460;52.028;8.916;2024-03-23T14:55:13;6.90;1.00
6843;DHT22;3460;52.028;8.916;2024-03-23T14:57:39;6.90;1.00
6843;DHT22;3460;52.028;8.916;2024-03-23T15:00:08;6.40;99.90
6843;DHT22;3460;52.028;8.916;2024-03-23T15:02:36;5.60;99.90
6843;DHT22;3460;52.028;8.916;2024-03-23T15:05:03;5.10;99.90
6843;DHT22;3460;52.028;8.916;2024-03-23T15:07:30;4.90;1.00
6843;DHT22;3460;52.028;8.916;2024-03-23T15:09:58;4.80;99.90
6843;DHT22;3460;52.028;8.916;2024-03-23T15:12:24;4.70;90.60
6843;DHT22;3460;52.028;8.916;2024-03-23T15:14:50;4.80;1.00
6843;DHT22;3460;52.028;8.916;2024-03-23T15:17:16;5.00;1.00
6843;DHT22;3460;52.028;8.916;2024-03-23T15:19:44;5.20;1.00
6843;DHT22;3460;52.028;8.916;2024-03-23T15:22:09;5.40;1.00
6843;DHT22;3460;52.028;8.916;2024-03-23T15:24:36;5.50;64.30
6843;DHT22;3460;52.028;8.916;2024-03-23T15:27:04;5.50;99.90
6843;DHT22;3460;52.028;8.916;2024-03-23T15:29:33;5.50;1.00
6843;DHT22;3460;52.028;8.916;2024-03-23T15:31:58;5.40;99.90
6843;DHT22;3460;52.028;8.916;2024-03-23T15:34:25;5.40;99.90
6843;DHT22;3460;52.028;8.916;2024-03-23T15:36:51;5.30;99.90
6843;DHT22;3460;52.028;8.916;2024-03-23T15:39:18;5.20;54.60
6843;DHT22;3460;52.028;8.916;2024-03-23T15:41:45;5.10;99.90
6843;DHT22;3460;52.028;8.916;2024-03-23T15:44:13;5.10;1.00
6843;DHT22;3460;52.028;8.916;2024-03-23T15:46:39;5.10;99.90
6843;DHT22;3460;52.028;8.916;2024-03-23T15:49:06;5.20;1.00
6843;DHT22;3460;52.028;8.916;2024-03-23T15:51:32;5.60;84.80
6843;DHT22;3460;52.028;8.916;2024-03-23T15:54:01;5.80;1.00
6843;DHT22;3460;52.028;8.916;2024-03-23T15:56:29;6.00;1.00
6843;DHT22;3460;52.028;8.916;2024-03-23T15:58:56;6.10;99.90
6843;DHT22;3460;52.028;8.916;2024-03-23T16:01:27;6.10;99.90
6843;DHT22;3460;52.028;8.916;2024-03-23T16:03:54;6.10;99.90
6843;DHT22;3460;52.028;8.916;2024-03-23T16:06:20;6.20;1.00
6843;DHT22;3460;52.028;8.916;2024-03-23T16:08:47;6.20;1.00
6843;DHT22;3460;52.028;8.916;2024-03-23T16:11:13;6.20;1.00
6843;DHT22;3460;52.028;8.916;2024-03-23T16:13:39;6.20;1.00
6843;DHT22;3460;52.028;8.916;2024-03-23T16:16:06;6.20;81.10
6843;DHT22;3460;52.028;8.916;2024-03-23T16:18:37;6.20;99.90
6843;DHT22;3460;52.028;8.916;2024-03-23T16:21:06;6.20;1.00
6843;DHT22;3460;52.028;8.916;2024-03-23T16:23:34;6.20;1.00
6843;DHT22;3460;52.028;8.916;2024-03-23T16:26:00;6.20;1.00
6843;DHT22;3460;52.028;8.916;2024-03-23T16:28:28;6.30;1.00
6843;DHT22;3460;52.028;8.916;2024-03-23T16:30:56;6.20;99.90
6843;DHT22;3460;52.028;8.916;2024-03-23T16:33:23;6.30;1.00
6843;DHT22;3460;52.028;8.916;2024-03-23T16:35:57;6.30;99.90
6843;DHT22;3460;52.028;8.916;2024-03-23T16:38:25;6.20;99.90
6843;DHT22;3460;52.028;8.916;2024-03-23T16:40:57;6.20;99.90
6843;DHT22;3460;52.028;8.916;2024-03-23T16:43:25;6.20;1.00
6843;DHT22;3460;52.028;8.916;2024-03-23T16:45:56;6.20;1.00
6843;DHT22;3460;52.028;8.916;2024-03-23T16:48:24;6.20;1.00
6843;DHT22;3460;52.028;8.916;2024-03-23T16:50:50;6.10;1.00
6843;DHT22;3460;52.028;8.916;2024-03-23T16:53:19;6.00;1.00
6843;DHT22;3460;52.028;8.916;2024-03-23T16:55:45;6.00;1.00
6843;DHT22;3460;52.028;8.916;2024-03-23T16:58:12;5.90;1.00
6843;DHT22;3460;52.028;8.916;2024-03-23T17:00:39;5.90;99.90
6843;DHT22;3460;52.028;8.916;2024-03-23T17:03:05;5.80;1.00
6843;DHT22;3460;52.028;8.916;2024-03-23T17:05:36;5.80;99.90
6843;DHT22;3460;52.028;8.916;2024-03-23T17:08:03;5.70;1.00
6843;DHT22;3460;52.028;8.916;2024-03-23T17:10:31;5.60;1.00
6843;DHT22;3460;52.028;8.916;2024-03-23T17:12:57;5.70;1.00
6843;DHT22;3460;52.028;8.916;2024-03-23T17:15:24;5.70;5.10